Time;durP1;ratioP1;P1;durP2;ratioP2;P2;SDS_P1;SDS_P2;PMS_P1;PMS_P2;Temp;Humidity;BMP_temperature;BMP_pressure;BME280_temperature;BME280_humidity;BME280_pressure;Samples;Min_cycle;Max_cycle;Signal;HPM_P1;HPM_P2
2021/03/22 00:01:36;;;;;;;14.27;10.27;;;;;;;2.02;95.12;98172.66;1693689;83;21399;-69
2021/03/22 00:04:08;;;;;;;17.15;11.10;;;;;;;2.05;95.53;98171.39;1707647;82;20954;-69
2021/03/22 00:06:38;;;;;;;16.10;11.25;;;;;;;2.06;95.54;98170.53;1708919;83;20958;-67
2021/03/22 00:09:11;;;;;;;13.35;10.10;;;;;;;2.08;95.68;98168.82;1709151;82;20947;-68
2021/03/22 00:11:58;;;;;;;14.80;12.37;;;;;;;2.14;96.01;98161.52;1788938;78;27805;-69
2021/03/22 00:14:30;;;;;;;15.20;11.38;;;;;;;2.15;96.40;98162.83;1748638;80;20942;-69
2021/03/22 00:17:06;;;;;;;13.98;10.80;;;;;;;2.24;96.78;98160.76;1749879;80;21193;-68
2021/03/22 00:19:36;;;;;;;15.48;10.32;;;;;;;2.25;97.01;98159.90;1748038;80;20966;-69
2021/03/22 00:22:08;;;;;;;14.58;10.65;;;;;;;2.21;97.49;98155.09;1774952;79;21041;-69
2021/03/22 00:24:39;;;;;;;16.97;11.78;;;;;;;2.21;97.64;98158.13;1778463;79;21576;-68
2021/03/22 00:27:09;;;;;;;13.10;10.00;;;;;;;2.17;97.63;98155.92;1775075;79;20989;-68
2021/03/22 00:29:43;;;;;;;14.13;10.25;;;;;;;2.17;97.88;98160.25;1769422;80;21375;-68
2021/03/22 00:32:20;;;;;;;15.40;11.30;;;;;;;2.15;98.11;98145.92;1777598;79;21639;-68
2021/03/22 00:34:52;;;;;;;12.05;9.55;;;;;;;2.15;98.37;98142.45;1778595;79;21532;-67
2021/03/22 00:37:22;;;;;;;14.70;10.25;;;;;;;2.15;98.98;98135.94;1776573;80;21243;-67
2021/03/22 00:39:53;;;;;;;13.20;10.50;;;;;;;2.18;99.78;98139.45;1762950;79;21127;-68
2021/03/22 00:42:23;;;;;;;12.70;9.93;;;;;;;2.18;100.00;98136.84;1748022;80;21371;-68
2021/03/22 00:44:54;;;;;;;14.45;10.72;;;;;;;2.25;100.00;98143.41;1665399;82;21179;-68
2021/03/22 00:47:25;;;;;;;13.58;10.15;;;;;;;2.29;100.00;98133.48;1711282;83;20970;-66
2021/03/22 12:09:25;;;;;;;15.25;10.68;;;;;;;10.01;46.86;97943.16;1837200;77;22770;-68
2021/03/22 12:11:55;;;;;;;12.25;10.00;;;;;;;10.04;46.69;97954.08;1809498;79;20907;-67
2021/03/22 12:14:26;;;;;;;15.03;10.95;;;;;;;10.05;46.31;97951.86;1805443;79;22100;-65
2021/03/22 12:17:04;;;;;;;16.05;12.88;;;;;;;10.00;45.99;97951.09;1795244;79;20943;-67
2021/03/22 12:19:40;;;;;;;18.12;12.93;;;;;;;10.01;45.77;97944.92;1782792;79;20884;-67
2021/03/22 12:22:15;;;;;;;15.88;12.28;;;;;;;10.02;45.64;97947.52;1803425;77;20995;-65
2021/03/22 12:24:46;;;;;;;15.78;11.68;;;;;;;10.02;45.45;97940.94;1801813;79;21028;-66
2021/03/22 12:27:20;;;;;;;14.05;11.60;;;;;;;10.08;45.41;97939.92;1801741;78;21606;-64
2021/03/22 12:29:51;;;;;;;15.48;11.95;;;;;;;10.13;45.60;97934.55;1801758;78;20905;-64
2021/03/22 12:32:25;;;;;;;16.05;11.40;;;;;;;10.14;45.69;97942.41;1799914;78;20929;-64
2021/03/22 12:34:55;;;;;;;18.37;12.35;;;;;;;10.14;46.08;97934.96;1777536;79;20914;-65
2021/03/22 12:37:28;;;;;;;18.67;13.40;;;;;;;10.15;46.00;97930.97;1777601;79;20926;-65
2021/03/22 12:39:57;;;;;;;23.07;15.10;;;;;;;10.16;45.90;97941.06;1777433;79;21193;-66
2021/03/22 12:42:28;;;;;;;18.50;13.15;;;;;;;10.09;44.71;97938.58;1777533;80;21598;-65
2021/03/22 12:44:59;;;;;;;14.90;11.47;;;;;;;10.03;44.49;97932.12;1777767;79;20934;-65
2021/03/22 12:47:33;;;;;;;20.10;13.43;;;;;;;9.98;44.55;97939.73;1777443;79;21195;-66
2021/03/22 12:50:08;;;;;;;15.93;12.45;;;;;;;9.92;43.69;97931.94;1777497;79;20915;-67
2021/03/22 12:52:37;;;;;;;20.02;14.35;;;;;;;9.81;43.54;97928.68;1748134;79;22228;-65
2021/03/22 12:55:11;;;;;;;18.35;12.23;;;;;;;9.67;43.72;97932.48;1777488;79;20982;-66
2021/03/22 12:57:46;;;;;;;15.15;10.78;;;;;;;9.61;43.90;97931.75;1777599;79;21072;-66
2021/03/22 13:00:15;;;;;;;15.45;11.55;;;;;;;9.50;45.33;97933.75;1777528;79;21053;-66
2021/03/22 13:02:47;;;;;;;12.25;9.95;;;;;;;9.36;47.19;97937.51;1777517;79;21468;-66
2021/03/22 13:05:24;;;;;;;15.38;10.45;;;;;;;9.20;48.48;97941.35;1777512;79;21331;-66
2021/03/22 13:07:53;;;;;;;15.58;9.73;;;;;;;9.01;49.69;97937.35;1803560;79;20947;-66
2021/03/22 13:10:28;;;;;;;15.32;10.43;;;;;;;8.87;52.08;97932.32;1728617;82;20940;-65
2021/03/22 13:12:57;;;;;;;13.80;10.28;;;;;;;8.60;54.13;97934.14;1730585;81;21101;-68
2021/03/22 13:15:37;;;;;;;11.30;9.40;;;;;;;8.42;55.39;97940.11;1777610;79;21128;-68
2021/03/22 13:18:24;;;;;;;13.50;10.25;;;;;;;8.25;56.12;97938.17;1720468;82;22204;-67
2021/03/22 13:21:03;;;;;;;15.20;10.63;;;;;;;8.05;57.96;97941.12;1729641;82;20950;-68
2021/03/22 13:23:35;;;;;;;13.62;10.03;;;;;;;7.82;60.61;97935.31;1727070;82;21062;-69
2021/03/22 13:26:05;;;;;;;11.93;9.43;;;;;;;7.62;62.78;97943.91;1722369;82;21667;-68
2021/03/22 13:28:38;;;;;;;15.40;10.38;;;;;;;7.48;63.90;97949.31;1728536;82;21015;-66
2021/03/22 13:31:10;;;;;;;12.95;9.93;;;;;;;7.42;66.37;97946.77;1729918;82;21204;-68
2021/03/22 13:33:40;;;;;;;15.48;11.80;;;;;;;7.35;68.33;97955.17;1731415;82;21117;-68
2021/03/22 13:36:14;;;;;;;20.80;10.80;;;;;;;7.28;70.09;97953.95;1729776;82;21010;-68
2021/03/22 13:38:44;;;;;;;13.30;10.80;;;;;;;7.22;72.38;97957.52;1730589;80;21482;-68
2021/03/22 13:41:29;;;;;;;16.02;12.05;;;;;;;7.13;73.56;97955.00;1740015;82;20887;-68
2021/03/22 13:44:02;;;;;;;15.08;11.48;;;;;;;7.08;76.03;97959.39;1737710;80;21210;-67
2021/03/22 13:46:31;;;;;;;14.83;10.53;;;;;;;7.01;79.21;97965.16;1730992;82;21576;-69
2021/03/22 13:49:00;;;;;;;14.87;11.65;;;;;;;6.90;80.82;97963.96;1726869;82;21474;-67
2021/03/22 13:51:34;;;;;;;14.07;11.57;;;;;;;6.79;82.47;97959.27;1728015;82;21078;-68
2021/03/22 13:54:04;;;;;;;15.68;11.33;;;;;;;6.68;83.56;97970.75;1736479;81;21027;-68
2021/03/22 13:56:33;;;;;;;17.55;11.97;;;;;;;6.66;84.68;97965.96;1781985;79;21191;-69
2021/03/22 13:59:03;;;;;;;14.33;11.75;;;;;;;6.68;84.67;97967.68;1727481;82;20955;-69
2021/03/22 14:01:34;;;;;;;13.43;11.33;;;;;;;6.66;85.17;97973.82;1726612;82;20964;-69
2021/03/22 14:04:04;;;;;;;15.88;12.65;;;;;;;6.58;85.52;97972.11;1803642;78;20930;-69
2021/03/22 14:06:34;;;;;;;18.00;13.50;;;;;;;6.57;86.52;97977.36;1766303;79;20899;-68
2021/03/22 14:09:05;;;;;;;18.17;14.78;;;;;;;6.54;87.86;97982.63;1785264;78;21375;-69
2021/03/22 14:11:34;;;;;;;19.40;15.10;;;;;;;6.51;89.80;97983.52;1784411;78;20887;-68
2021/03/22 14:14:04;;;;;;;18.45;15.38;;;;;;;6.48;91.57;97985.30;1775859;80;21468;-68
2021/03/22 14:16:35;;;;;;;17.27;13.85;;;;;;;6.41;92.45;97988.86;1725692;82;21482;-69
2021/03/22 14:19:05;;;;;;;16.62;13.35;;;;;;;6.33;93.27;97987.61;1737609;82;20987;-68
2021/03/22 14:21:34;;;;;;;17.85;13.32;;;;;;;6.24;92.98;97986.38;1737658;82;21270;-68
2021/03/22 14:24:05;;;;;;;18.00;12.63;;;;;;;6.14;93.33;97985.98;1725734;82;20960;-64
2021/03/22 14:26:35;;;;;;;25.55;15.32;;;;;;;6.00;93.35;97992.62;1723897;82;20945;-68
2021/03/22 14:29:04;;;;;;;25.82;16.57;;;;;;;5.98;93.58;97989.14;1709725;82;20933;-67
2021/03/22 14:31:35;;;;;;;21.60;15.20;;;;;;;5.98;94.05;97993.07;1709757;82;20918;-68
2021/03/22 14:34:06;;;;;;;18.48;15.20;;;;;;;6.03;94.61;97987.80;1709892;83;21371;-67
2021/03/22 14:36:36;;;;;;;23.73;17.90;;;;;;;6.04;95.70;97985.18;1709659;82;20969;-68
2021/03/22 14:39:06;;;;;;;22.58;18.35;;;;;;;6.04;96.57;97990.85;1709737;82;20965;-68
2021/03/22 14:41:36;;;;;;;24.77;17.85;;;;;;;6.05;96.87;97994.77;1709653;82;20958;-68
2021/03/22 14:44:06;;;;;;;22.85;17.67;;;;;;;6.06;96.80;97995.64;1726693;82;20943;-68
2021/03/22 14:46:39;;;;;;;18.70;15.95;;;;;;;6.04;96.73;97994.78;1712931;82;21365;-68
2021/03/22 14:49:10;;;;;;;19.95;15.83;;;;;;;5.98;96.36;97997.87;1709571;82;20991;-68
2021/03/22 14:51:40;;;;;;;20.75;16.87;;;;;;;5.93;95.94;98002.27;1709697;82;20954;-68
2021/03/22 14:54:10;;;;;;;19.25;16.30;;;;;;;5.91;96.29;97996.61;1709764;82;21563;-68
2021/03/22 14:56:40;;;;;;;19.90;16.30;;;;;;;5.90;96.56;98000.10;1709712;84;21022;-68
2021/03/22 14:59:12;;;;;;;20.23;17.25;;;;;;;5.87;96.50;98004.02;1709701;82;22111;-68
2021/03/22 15:01:42;;;;;;;23.67;15.93;;;;;;;5.85;96.71;98005.77;1709888;84;21468;-69
2021/03/22 15:04:12;;;;;;;20.48;16.85;;;;;;;5.83;96.10;98003.60;1737668;82;21485;-68
2021/03/22 15:06:42;;;;;;;19.60;16.80;;;;;;;5.80;95.78;98001.00;1739191;81;20899;-68
2021/03/22 15:09:11;;;;;;;19.32;15.43;;;;;;;5.71;95.92;98000.61;1739115;81;20923;-69
2021/03/22 15:11:42;;;;;;;20.43;16.40;;;;;;;5.65;96.79;98010.64;1739163;81;21364;-66
2021/03/22 15:14:11;;;;;;;22.55;17.85;;;;;;;5.53;98.50;98006.78;1729864;82;20951;-67
2021/03/22 15:16:42;;;;;;;24.37;19.07;;;;;;;5.45;100.00;98002.02;1710660;81;20935;-67
2021/03/22 15:19:12;;;;;;;20.82;16.87;;;;;;;5.37;100.00;98018.17;1729477;81;20926;-66
2021/03/22 15:21:42;;;;;;;22.62;16.93;;;;;;;5.29;100.00;98016.90;1742554;80;20950;-67
2021/03/22 15:24:12;;;;;;;21.40;17.05;;;;;;;5.29;100.00;98019.95;1725411;83;21212;-67
2021/03/22 15:26:44;;;;;;;21.85;18.50;;;;;;;5.28;100.00;98018.21;1717697;82;21050;-67
2021/03/22 15:29:14;;;;;;;20.97;17.17;;;;;;;5.24;100.00;98013.87;1723355;82;21208;-65
2021/03/22 15:31:44;;;;;;;21.97;18.15;;;;;;;5.19;100.00;98024.74;1725317;82;20944;-67
2021/03/22 15:34:14;;;;;;;23.57;18.30;;;;;;;5.17;100.00;98031.28;1717362;81;20923;-68
2021/03/22 15:36:45;;;;;;;22.20;18.52;;;;;;;5.12;100.00;98034.78;1740513;80;21364;-73
2021/03/22 15:39:16;;;;;;;26.15;20.55;;;;;;;5.06;100.00;98037.84;1742654;80;20951;-65
2021/03/22 15:41:46;;;;;;;25.60;20.10;;;;;;;4.97;100.00;98037.86;1743901;80;20946;-66
2021/03/22 15:44:16;;;;;;;25.05;19.75;;;;;;;4.91;100.00;98040.92;1720343;80;20955;-65
2021/03/22 15:46:46;;;;;;;25.37;19.48;;;;;;;4.84;100.00;98047.91;1714413;83;20942;-64
2021/03/22 15:49:16;;;;;;;23.90;19.12;;;;;;;4.78;100.00;98042.69;1714257;83;21504;-66
2021/03/22 15:51:46;;;;;;;23.45;19.37;;;;;;;4.76;100.00;98044.42;1692649;83;20958;-66
2021/03/22 15:54:15;;;;;;;22.85;19.17;;;;;;;4.73;100.00;98047.91;1714267;82;20947;-65
2021/03/22 15:56:46;;;;;;;23.83;19.57;;;;;;;4.68;100.00;98045.70;1741784;80;20887;-65
2021/03/22 15:59:16;;;;;;;22.17;18.17;;;;;;;4.66;100.00;98042.66;1744039;80;21046;-65
2021/03/22 16:01:46;;;;;;;23.12;18.57;;;;;;;4.67;100.00;98057.46;1744017;80;21461;-66
2021/03/22 16:04:15;;;;;;;25.12;19.87;;;;;;;4.66;100.00;98046.58;1743845;80;20966;-66
2021/03/22 16:06:46;;;;;;;25.48;19.48;;;;;;;4.62;100.00;98048.32;1743983;80;21480;-66
2021/03/22 16:09:15;;;;;;;24.32;19.10;;;;;;;4.60;100.00;98055.72;1743766;80;20895;-65
2021/03/22 16:11:46;;;;;;;25.35;18.35;;;;;;;4.57;100.00;98060.95;1743889;80;20943;-65
2021/03/22 16:16:58;;;;;;;25.15;19.42;;;;;;;4.46;100.00;98070.08;1747589;81;21469;-65
2021/03/22 16:19:31;;;;;;;25.55;19.98;;;;;;;4.45;100.00;98072.26;1747177;81;20990;-65
2021/03/22 16:22:03;;;;;;;23.55;19.10;;;;;;;4.45;100.00;98076.17;1744811;81;20998;-64
2021/03/22 16:24:33;;;;;;;25.12;19.80;;;;;;;4.41;100.00;98084.44;1747378;81;21532;-65
2021/03/22 16:27:04;;;;;;;26.17;20.37;;;;;;;4.37;100.00;98085.31;1747464;81;21372;-65
2021/03/22 16:29:36;;;;;;;25.80;18.82;;;;;;;4.33;100.00;98088.78;1747229;81;21042;-65
2021/03/22 16:32:07;;;;;;;24.12;18.80;;;;;;;4.29;100.00;98093.56;1747077;81;21014;-65
2021/03/22 16:34:39;;;;;;;24.07;17.90;;;;;;;4.29;100.00;98097.48;1736263;82;21039;-66
2021/03/22 16:37:10;;;;;;;22.30;17.80;;;;;;;4.29;100.00;98111.84;1746770;82;21081;-65
2021/03/22 16:39:40;;;;;;;22.77;18.45;;;;;;;4.33;100.00;98105.75;1746659;80;21212;-64
2021/03/22 16:42:10;;;;;;;25.27;19.65;;;;;;;4.38;100.00;98105.76;1748183;80;21243;-69
2021/03/22 16:44:41;;;;;;;25.88;18.92;;;;;;;4.41;100.00;98111.86;1746804;81;21130;-62
2021/03/22 16:47:12;;;;;;;27.73;21.35;;;;;;;4.41;100.00;98115.77;1766181;80;21544;-67
2021/03/22 16:49:41;;;;;;;28.38;21.68;;;;;;;4.42;100.00;98114.91;1745587;80;21080;-66
2021/03/22 16:52:11;;;;;;;27.58;20.60;;;;;;;4.44;100.00;98117.52;1753356;80;21378;-65
2021/03/22 16:54:40;;;;;;;27.05;20.02;;;;;;;4.46;100.00;98126.22;1747447;81;21081;-66
2021/03/22 16:57:10;;;;;;;24.00;19.52;;;;;;;4.47;100.00;98124.05;1745160;80;21030;-66
2021/03/22 16:59:40;;;;;;;26.80;20.40;;;;;;;4.46;100.00;98122.74;1746627;80;21145;-68
2021/03/22 17:02:10;;;;;;;23.95;19.45;;;;;;;4.43;100.00;98124.91;1731554;80;21145;-66
2021/03/22 17:04:39;;;;;;;26.40;20.70;;;;;;;4.39;100.00;98133.61;1737196;80;21200;-69
2021/03/22 17:07:10;;;;;;;25.12;18.95;;;;;;;4.35;100.00;98143.61;1738578;81;21636;-69
2021/03/22 17:09:39;;;;;;;24.27;18.98;;;;;;;4.29;100.00;98137.94;1742229;81;21161;-67
2021/03/22 17:12:10;;;;;;;24.23;19.32;;;;;;;4.27;100.00;98150.13;1742189;81;21652;-67
2021/03/22 17:14:39;;;;;;;26.82;19.62;;;;;;;4.31;100.00;98152.30;1742310;81;21177;-68
2021/03/22 17:17:10;;;;;;;27.15;19.55;;;;;;;4.24;100.00;98152.69;1745617;82;21448;-66
2021/03/22 17:19:41;;;;;;;26.65;20.43;;;;;;;4.26;100.00;98147.07;1697055;84;21070;-65
2021/03/22 17:22:10;;;;;;;27.32;21.00;;;;;;;4.27;100.00;98140.98;1727949;82;21130;-67
2021/03/22 17:24:39;;;;;;;23.07;18.90;;;;;;;4.27;100.00;98151.86;1727935;82;21138;-66
2021/03/22 17:27:09;;;;;;;25.43;19.55;;;;;;;4.24;100.00;98151.38;1761682;81;21274;-67
2021/03/22 17:29:38;;;;;;;25.72;20.60;;;;;;;4.28;100.00;98149.25;1761767;81;21694;-65
2021/03/22 17:32:09;;;;;;;24.77;19.92;;;;;;;4.27;100.00;98140.98;1761630;81;20946;-66
2021/03/22 17:34:38;;;;;;;24.77;19.52;;;;;;;4.26;100.00;98141.85;1761336;81;21729;-66
2021/03/22 17:37:08;;;;;;;22.67;18.77;;;;;;;4.24;100.00;98138.33;1751744;80;20950;-65
2021/03/22 17:39:38;;;;;;;24.35;19.42;;;;;;;4.21;100.00;98157.03;1733162;81;21081;-65
2021/03/22 17:42:10;;;;;;;23.35;18.40;;;;;;;4.14;100.00;98152.22;1757114;81;22264;-65
2021/03/22 17:44:41;;;;;;;;;;;;;;;4.08;100.00;98169.16;1764030;81;21164;-65
2021/03/22 17:47:10;;;;;;;21.62;17.55;;;;;;;4.05;100.00;98163.50;1698877;84;20232;-65
2021/03/22 17:49:40;;;;;;;24.63;18.27;;;;;;;4.02;100.00;98171.75;1722215;83;21291;-65
2021/03/22 17:52:09;;;;;;;23.92;18.77;;;;;;;3.97;100.00;98169.13;1761632;81;21201;-65
2021/03/22 17:54:39;;;;;;;20.95;17.75;;;;;;;3.92;100.00;98176.49;1753835;81;21367;-65
2021/03/22 17:57:09;;;;;;;25.75;18.90;;;;;;;3.88;100.00;98187.78;1751824;80;21173;-63
2021/03/22 17:59:39;;;;;;;23.83;18.70;;;;;;;3.87;100.00;98188.21;1703764;82;21052;-64
2021/03/22 18:02:13;;;;;;;20.30;17.27;;;;;;;3.87;100.00;98186.03;1731406;82;20938;-68
2021/03/22 18:04:43;;;;;;;18.77;16.00;;;;;;;3.82;100.00;98186.02;1701961;82;21180;-65
2021/03/22 18:07:14;;;;;;;21.68;17.23;;;;;;;3.76;100.00;98181.60;1678759;82;21229;-65
2021/03/22 18:09:44;;;;;;;21.55;16.35;;;;;;;3.70;100.00;98193.31;1732405;80;21177;-63
2021/03/22 18:12:14;;;;;;;20.23;16.15;;;;;;;3.64;100.00;98196.31;1744888;80;21017;-64
2021/03/22 18:14:44;;;;;;;18.60;16.60;;;;;;;3.63;100.00;98188.92;1760872;80;21168;-66
2021/03/22 18:17:13;;;;;;;17.62;14.33;;;;;;;3.61;100.00;98198.91;1749391;81;21588;-67
2021/03/22 18:19:43;;;;;;;17.75;13.70;;;;;;;3.55;100.00;98208.86;1746946;81;21606;-67
2021/03/22 18:22:13;;;;;;;15.58;12.58;;;;;;;3.53;100.00;98205.80;1746977;81;21148;-67
2021/03/22 18:24:42;;;;;;;16.25;11.55;;;;;;;3.47;100.00;98216.64;1747181;81;21133;-67
2021/03/22 18:27:12;;;;;;;15.58;12.45;;;;;;;3.48;100.00;98209.69;1747943;80;21125;-67
2021/03/22 18:29:41;;;;;;;13.50;10.18;;;;;;;3.46;100.00;98221.84;1750772;80;21150;-68
2021/03/22 18:32:11;;;;;;;13.20;10.48;;;;;;;3.44;100.00;98232.69;1764558;79;22375;-67
2021/03/22 18:34:40;;;;;;;14.73;11.18;;;;;;;3.48;100.00;98227.94;1760483;79;21185;-68
2021/03/22 18:37:10;;;;;;;12.47;10.50;;;;;;;3.44;100.00;98243.12;1755162;79;21025;-67
2021/03/22 18:39:41;;;;;;;14.30;10.70;;;;;;;3.41;100.00;98237.88;1751274;80;21170;-61
2021/03/22 18:42:12;;;;;;;13.68;10.15;;;;;;;3.38;100.00;98245.67;1741358;80;21611;-66
2021/03/22 18:44:42;;;;;;;13.18;9.88;;;;;;;3.38;100.00;98230.91;1750212;80;21372;-67
2021/03/22 18:47:11;;;;;;;15.78;10.63;;;;;;;3.35;100.00;98245.66;1740085;81;21149;-66
2021/03/22 18:49:41;;;;;;;13.10;9.60;;;;;;;3.33;100.00;98255.20;1715829;80;21237;-67
2021/03/22 18:52:11;;;;;;;12.98;9.93;;;;;;;3.32;100.00;98253.02;1749800;80;21066;-65
2021/03/22 18:54:41;;;;;;;12.88;10.20;;;;;;;3.35;100.00;98247.83;1754957;80;21109;-67
2021/03/22 18:57:11;;;;;;;15.55;10.03;;;;;;;3.33;100.00;98253.89;1750170;79;22367;-67
2021/03/22 18:59:42;;;;;;;10.63;8.85;;;;;;;3.33;100.00;98258.67;1741705;80;20994;-68
2021/03/22 19:02:12;;;;;;;11.10;7.92;;;;;;;3.31;100.00;98263.40;1755576;79;21022;-68
2021/03/22 19:04:42;;;;;;;11.03;7.33;;;;;;;3.31;100.00;98264.31;1741652;81;21006;-67
2021/03/22 19:07:12;;;;;;;10.03;6.33;;;;;;;3.27;100.00;98264.23;1742855;80;21560;-67
2021/03/22 19:09:42;;;;;;;7.37;5.53;;;;;;;3.14;100.00;98269.77;1764514;80;21368;-68
2021/03/22 19:12:13;;;;;;;10.45;5.47;;;;;;;3.04;100.00;98273.16;1755000;80;21122;-67
2021/03/22 19:14:42;;;;;;;7.20;5.30;;;;;;;2.95;100.00;98273.06;1747130;80;21130;-67
2021/03/22 19:17:11;;;;;;;6.42;3.92;;;;;;;2.90;100.00;98274.75;1769856;79;21594;-67
2021/03/22 19:19:42;;;;;;;5.05;3.72;;;;;;;2.87;100.00;98288.62;1770778;80;21126;-66
2021/03/22 19:22:12;;;;;;;5.03;3.22;;;;;;;2.85;100.00;98296.84;1784290;79;21239;-68
2021/03/22 19:24:41;;;;;;;5.35;3.45;;;;;;;2.87;100.00;98294.25;1771204;80;21142;-68
2021/03/22 19:27:12;;;;;;;4.42;3.15;;;;;;;2.88;100.00;98299.48;1784538;79;21177;-68
2021/03/22 19:29:44;;;;;;;5.20;3.30;;;;;;;2.92;100.00;98295.17;1747919;80;21188;-68
2021/03/22 19:32:13;;;;;;;4.15;3.00;;;;;;;2.96;100.00;98306.07;1742042;81;21105;-67
2021/03/22 19:34:54;;;;;;;4.95;3.40;;;;;;;2.98;100.00;98304.36;1632339;87;22147;-67
2021/03/22 19:37:24;;;;;;;7.12;4.28;;;;;;;3.00;100.00;98307.84;1632355;88;21174;-66
2021/03/22 19:39:53;;;;;;;4.55;3.17;;;;;;;3.02;100.00;98313.52;1630348;86;21234;-67
2021/03/22 19:42:23;;;;;;;8.08;3.92;;;;;;;3.02;100.00;98315.25;1626769;88;21103;-67
2021/03/22 19:44:53;;;;;;;7.22;4.12;;;;;;;3.01;100.00;98324.80;1632146;88;21183;-67
2021/03/22 19:47:23;;;;;;;8.08;4.40;;;;;;;3.01;100.00;98323.92;1632123;88;21237;-66
2021/03/22 19:49:53;;;;;;;6.45;4.00;;;;;;;2.99;100.00;98325.64;1631897;87;21253;-66
2021/03/22 19:52:23;;;;;;;8.38;3.92;;;;;;;2.97;100.00;98328.23;1631872;88;21182;-66
2021/03/22 19:54:52;;;;;;;6.95;4.10;;;;;;;2.94;100.00;98325.59;1627543;86;21208;-66
2021/03/22 19:57:22;;;;;;;6.20;3.90;;;;;;;2.94;100.00;98326.89;1622307;88;21222;-67
2021/03/22 19:59:52;;;;;;;5.22;3.33;;;;;;;2.90;100.00;98325.55;1622115;88;22218;-66
2021/03/22 20:02:22;;;;;;;4.67;3.67;;;;;;;2.86;100.00;98327.24;1622278;88;21771;-67
2021/03/22 20:04:52;;;;;;;8.33;4.25;;;;;;;2.84;100.00;98328.53;1642603;80;21234;-66
2021/03/22 20:07:21;;;;;;;5.85;3.50;;;;;;;2.81;100.00;98340.61;1796658;79;21145;-66
2021/03/22 20:09:55;;;;;;;4.62;3.77;;;;;;;2.77;100.00;98338.39;1788189;80;21153;-66
2021/03/22 20:12:25;;;;;;;5.12;3.77;;;;;;;2.77;100.00;98336.22;1796767;79;21214;-67
2021/03/22 20:14:55;;;;;;;6.40;4.20;;;;;;;2.76;100.00;98337.08;1788130;80;21167;-67
2021/03/22 20:17:25;;;;;;;7.30;4.47;;;;;;;2.77;100.00;98327.98;1796762;79;21038;-67
2021/03/22 20:19:55;;;;;;;6.35;4.70;;;;;;;2.79;100.00;98337.98;1788154;79;21136;-69
2021/03/22 20:22:26;;;;;;;7.05;5.00;;;;;;;2.78;100.00;98337.54;1788753;80;20946;-68
2021/03/22 20:24:55;;;;;;;7.42;4.83;;;;;;;2.79;100.00;98342.32;1789248;79;21361;-68
2021/03/22 20:27:25;;;;;;;6.60;4.20;;;;;;;2.80;100.00;98341.47;1789214;80;21614;-68
2021/03/22 20:29:55;;;;;;;6.22;4.70;;;;;;;2.83;100.00;98331.95;1788956;79;21154;-66
2021/03/22 20:32:25;;;;;;;9.28;4.95;;;;;;;2.84;100.00;98335.47;1788801;79;21028;-66
2021/03/22 20:34:56;;;;;;;12.78;4.92;;;;;;;2.88;100.00;98335.95;1782381;79;21211;-64
2021/03/22 20:37:27;;;;;;;7.43;5.37;;;;;;;2.89;100.00;98332.91;1781962;79;21198;-64
2021/03/22 20:39:56;;;;;;;7.28;5.28;;;;;;;2.91;100.00;98337.71;1731220;81;21094;-67
2021/03/22 20:42:26;;;;;;;6.28;4.75;;;;;;;2.90;100.00;98334.66;1792628;80;21159;-66
2021/03/22 20:44:55;;;;;;;6.55;4.60;;;;;;;2.86;100.00;98333.75;1792793;80;21147;-66
2021/03/22 20:47:26;;;;;;;7.40;4.80;;;;;;;2.81;100.00;98328.89;1791390;78;21602;-65
2021/03/22 20:49:56;;;;;;;6.92;4.33;;;;;;;2.74;100.00;98338.36;1796253;78;21295;-67
2021/03/22 20:52:27;;;;;;;7.80;4.12;;;;;;;2.69;100.00;98336.56;1825203;78;21013;-66
2021/03/22 20:54:56;;;;;;;5.72;3.60;;;;;;;2.64;100.00;98327.82;1803308;78;21122;-66
2021/03/22 20:57:28;;;;;;;6.47;3.72;;;;;;;2.61;100.00;98342.98;1792955;80;21076;-67
2021/03/22 20:59:59;;;;;;;5.80;3.52;;;;;;;2.59;100.00;98340.78;1792799;80;21021;-66
2021/03/22 21:02:28;;;;;;;7.75;3.35;;;;;;;2.61;100.00;98348.61;1792871;79;21200;-66
2021/03/22 21:04:59;;;;;;;4.72;3.15;;;;;;;2.59;100.00;98340.78;1792718;80;21515;-65
2021/03/22 21:07:28;;;;;;;4.97;2.70;;;;;;;2.57;100.00;98349.43;1792770;80;21139;-66
2021/03/22 21:09:58;;;;;;;5.33;2.90;;;;;;;2.56;100.00;98351.16;1792758;80;21033;-66
2021/03/22 21:12:29;;;;;;;5.83;2.75;;;;;;;2.54;100.00;98354.17;1792668;79;21022;-66
2021/03/22 21:14:59;;;;;;;5.67;2.12;;;;;;;2.51;100.00;98354.13;1792820;79;21373;-66
2021/03/22 21:17:32;;;;;;;5.35;2.10;;;;;;;2.48;100.00;98352.36;1792614;79;21191;-66
2021/03/22 21:20:06;;;;;;;6.03;2.17;;;;;;;2.46;100.00;98362.31;1792611;78;21587;-67
2021/03/22 21:22:36;;;;;;;2.47;1.80;;;;;;;2.46;100.00;98363.19;1792685;78;20989;-67
2021/03/22 21:25:06;;;;;;;2.87;1.80;;;;;;;2.46;100.00;98355.80;1791198;78;21529;-68
2021/03/22 21:27:36;;;;;;;3.85;1.77;;;;;;;2.44;99.15;98365.32;1790583;80;21562;-66
2021/03/22 21:30:08;;;;;;;3.75;1.90;;;;;;;2.43;99.18;98355.34;1791066;79;21139;-67
2021/03/22 21:32:37;;;;;;;2.98;1.80;;;;;;;2.41;98.79;98363.98;1784913;79;21175;-66
2021/03/22 21:35:10;;;;;;;2.70;1.57;;;;;;;2.39;97.97;98356.58;1778269;79;21052;-68
2021/03/22 21:37:39;;;;;;;4.92;1.80;;;;;;;2.37;96.61;98359.59;1803276;79;20997;-67
2021/03/22 21:40:10;;;;;;;3.98;1.40;;;;;;;2.36;95.42;98357.80;1790790;79;21254;-67
2021/03/22 21:42:41;;;;;;;2.47;1.52;;;;;;;2.32;94.21;98362.09;1774066;80;21038;-66
2021/03/22 21:45:14;;;;;;;1.87;1.25;;;;;;;2.31;93.84;98352.96;1787870;79;21590;-67
2021/03/22 21:47:48;;;;;;;3.35;1.60;;;;;;;2.31;93.21;98356.87;1813894;79;20926;-66
2021/03/22 21:50:20;;;;;;;3.42;1.60;;;;;;;2.32;92.93;98355.59;1813875;79;21112;-66
2021/03/22 21:52:49;;;;;;;6.87;2.98;;;;;;;2.31;92.45;98359.47;1796609;79;21355;-66
2021/03/22 21:55:22;;;;;;;6.33;2.77;;;;;;;2.26;92.24;98362.44;1788902;79;21099;-65
2021/03/22 21:57:58;;;;;;;1.65;1.42;;;;;;;2.23;92.40;98367.59;1789012;79;21773;-67
2021/03/22 22:00:32;;;;;;;4.50;1.82;;;;;;;2.22;92.27;98368.02;1757983;79;21622;-66
2021/03/22 22:03:05;;;;;;;5.08;2.10;;;;;;;2.20;92.22;98361.50;1789060;79;21473;-65
2021/03/22 22:05:37;;;;;;;4.15;1.80;;;;;;;2.22;92.25;98364.13;1789070;79;21499;-66
2021/03/22 22:08:08;;;;;;;8.23;1.65;;;;;;;2.24;92.34;98362.84;1789062;79;21167;-67
2021/03/22 22:10:40;;;;;;;2.70;1.50;;;;;;;2.18;91.97;98361.02;1789043;79;20922;-65
2021/03/22 22:13:10;;;;;;;3.10;1.60;;;;;;;2.15;91.85;98366.19;1789006;79;20898;-66
2021/03/22 22:15:42;;;;;;;3.05;1.50;;;;;;;2.11;91.81;98369.17;1789093;79;20946;-65
